Time;durP1;ratioP1;P1;durP2;ratioP2;P2;SDS_P1;SDS_P2;PMS_P1;PMS_P2;Temp;Humidity;BMP_temperature;BMP_pressure;BME280_temperature;BME280_humidity;BME280_pressure;Samples;Min_cycle;Max_cycle;Signal;HPM_P1;HPM_P2
2023/06/05 00:01:59;;;;;;;9.73;1.88;;;39.20;17.60;;;;;;4909109;29;20021;-60
2023/06/05 00:04:25;;;;;;;4.25;1.48;;;39.20;18.90;;;;;;4909050;29;20044;-62
2023/06/05 00:06:52;;;;;;;8.00;1.77;;;39.20;18.00;;;;;;4910974;29;20024;-61
2023/06/05 00:09:18;;;;;;;8.77;1.90;;;39.20;18.30;;;;;;4910257;29;20024;-59
2023/06/05 00:11:45;;;;;;;7.38;1.55;;;39.10;18.50;;;;;;4898419;29;20021;-61
2023/06/05 00:14:11;;;;;;;6.15;1.98;;;39.10;18.80;;;;;;4907412;29;20043;-60
2023/06/05 00:16:38;;;;;;;4.00;1.80;;;39.00;18.80;;;;;;4908840;29;20031;-62
2023/06/05 00:19:04;;;;;;;7.10;2.08;;;38.80;19.00;;;;;;4906807;29;20032;-61
2023/06/05 00:21:31;;;;;;;22.23;2.20;;;38.80;19.40;;;;;;4908766;29;20504;-63
2023/06/05 00:23:57;;;;;;;8.10;2.17;;;38.70;18.40;;;;;;4909009;29;20048;-61
2023/06/05 00:26:24;;;;;;;18.40;3.55;;;38.70;19.20;;;;;;4907998;29;20100;-59
2023/06/05 00:28:50;;;;;;;6.57;2.10;;;38.60;19.10;;;;;;4908778;29;20054;-59
2023/06/05 00:31:21;;;;;;;10.25;1.92;;;38.60;19.50;;;;;;4911062;29;20162;-61
2023/06/05 00:33:48;;;;;;;4.15;1.30;;;38.60;19.60;;;;;;4910399;29;20028;-59
2023/06/05 00:36:15;;;;;;;8.30;1.60;;;38.60;20.30;;;;;;4909284;29;20386;-62
2023/06/05 00:38:41;;;;;;;4.72;1.52;;;38.50;20.20;;;;;;4907279;29;20039;-59
2023/06/05 00:41:08;;;;;;;8.05;2.20;;;38.50;20.80;;;;;;4907236;29;20059;-59
2023/06/05 00:43:34;;;;;;;5.05;1.70;;;38.30;20.70;;;;;;4908041;29;20052;-61
2023/06/05 00:46:03;;;;;;;6.47;1.65;;;38.20;20.10;;;;;;4908848;29;20036;-60
2023/06/05 00:48:31;;;;;;;6.40;1.48;;;38.20;20.30;;;;;;4911480;29;20126;-60
2023/06/05 00:50:58;;;;;;;10.82;2.05;;;38.10;20.00;;;;;;4907168;29;20036;-62
2023/06/05 00:53:25;;;;;;;9.68;1.85;;;38.10;20.40;;;;;;4906963;29;20028;-61
2023/06/05 00:55:52;;;;;;;9.18;2.00;;;38.00;20.40;;;;;;4907434;29;20115;-63
2023/06/05 00:58:19;;;;;;;8.48;2.15;;;38.00;21.10;;;;;;4908743;29;20025;-62
2023/06/05 01:00:48;;;;;;;11.73;2.10;;;37.90;20.50;;;;;;4909903;29;20503;-62
2023/06/05 01:03:16;;;;;;;8.77;1.98;;;37.80;20.50;;;;;;4909736;29;20055;-63
2023/06/05 01:05:43;;;;;;;7.90;1.90;;;37.80;20.90;;;;;;4912324;29;20040;-64
2023/06/05 01:08:12;;;;;;;9.00;1.83;;;37.60;20.10;;;;;;4905880;29;20535;-62
2023/06/05 01:10:39;;;;;;;14.10;2.33;;;37.60;19.90;;;;;;4907496;29;20036;-63
2023/06/05 01:13:16;;;;;;;5.63;1.85;;;37.60;20.50;;;;;;4900540;29;20512;-64
2023/06/05 01:15:42;;;;;;;10.93;1.92;;;37.60;19.90;;;;;;4907670;29;20058;-62
2023/06/05 01:18:10;;;;;;;8.88;1.73;;;37.50;19.30;;;;;;4906608;29;20074;-61
2023/06/05 01:20:39;;;;;;;7.85;1.88;;;37.40;19.10;;;;;;4905546;29;20111;-65
2023/06/05 01:23:07;;;;;;;6.95;2.15;;;37.30;19.20;;;;;;4907114;29;20037;-64
2023/06/05 01:25:34;;;;;;;9.57;1.92;;;37.30;19.50;;;;;;4905939;29;20937;-63
2023/06/05 01:28:09;;;;;;;7.43;1.73;;;37.20;18.90;;;;;;4905289;29;20042;-63
2023/06/05 01:30:44;;;;;;;12.15;2.45;;;37.20;19.30;;;;;;4910364;29;20038;-62
2023/06/05 01:33:17;;;;;;;13.35;2.25;;;37.20;18.90;;;;;;4907495;29;20077;-64
2023/06/05 01:35:51;;;;;;;8.70;3.67;;;37.00;19.20;;;;;;4908324;29;20060;-63
2023/06/05 01:38:18;;;;;;;9.80;3.05;;;36.90;20.10;;;;;;4906483;29;20038;-62
2023/06/05 01:40:47;;;;;;;6.85;2.40;;;36.90;19.30;;;;;;4907100;29;20128;-63
2023/06/05 01:43:14;;;;;;;8.18;2.58;;;36.90;19.10;;;;;;4908024;29;20129;-63
2023/06/05 01:45:40;;;;;;;10.57;2.58;;;36.90;19.40;;;;;;4906772;29;20125;-62
2023/06/05 01:48:10;;;;;;;10.13;3.35;;;36.90;18.90;;;;;;4909207;29;20067;-61
2023/06/05 01:50:37;;;;;;;11.27;4.28;;;36.70;18.80;;;;;;4908278;29;20052;-64
2023/06/05 01:53:05;;;;;;;10.35;3.30;;;36.60;18.80;;;;;;4907451;29;20042;-64
2023/06/05 01:55:32;;;;;;;23.65;4.45;;;36.50;18.80;;;;;;4907819;29;20047;-63
2023/06/05 01:57:58;;;;;;;10.80;2.40;;;36.50;18.90;;;;;;4905699;29;20061;-64
2023/06/05 02:00:25;;;;;;;35.47;4.13;;;36.40;18.50;;;;;;4906625;29;20446;-61
2023/06/05 02:02:53;;;;;;;13.52;2.72;;;36.30;18.60;;;;;;4910325;29;20038;-63
2023/06/05 02:05:20;;;;;;;28.35;3.55;;;36.30;18.60;;;;;;4908182;29;20814;-63
2023/06/05 02:07:53;;;;;;;19.30;2.88;;;36.20;18.20;;;;;;4907125;29;20041;-63
2023/06/05 02:10:20;;;;;;;9.93;2.08;;;36.20;18.00;;;;;;4908480;29;20076;-63
2023/06/05 02:12:47;;;;;;;11.65;2.28;;;36.10;18.10;;;;;;4901892;29;20049;-61
2023/06/05 02:15:14;;;;;;;8.48;1.75;;;36.00;18.10;;;;;;4904312;29;20132;-62
2023/06/05 02:17:45;;;;;;;7.72;2.25;;;36.00;18.80;;;;;;4905058;29;20045;-62
2023/06/05 02:20:17;;;;;;;14.32;3.00;;;35.90;18.40;;;;;;4908653;29;20476;-64
2023/06/05 02:22:49;;;;;;;8.50;2.40;;;35.80;18.30;;;;;;4907395;29;20037;-65
2023/06/05 02:25:17;;;;;;;5.68;2.22;;;35.70;18.00;;;;;;4907287;29;20075;-63
2023/06/05 02:27:43;;;;;;;10.32;2.10;;;35.60;17.90;;;;;;4906783;29;20163;-62
2023/06/05 02:30:11;;;;;;;14.85;2.75;;;35.50;18.10;;;;;;4909931;29;20049;-59
2023/06/05 02:32:43;;;;;;;10.68;2.17;;;35.40;18.30;;;;;;4906735;29;20572;-63
2023/06/05 02:35:10;;;;;;;9.48;2.53;;;35.40;18.80;;;;;;4908775;29;20082;-62
2023/06/05 02:37:43;;;;;;;17.83;2.83;;;35.20;18.80;;;;;;4909370;29;20052;-62
2023/06/05 02:40:13;;;;;;;16.92;3.30;;;35.10;18.60;;;;;;4908089;29;20044;-62
2023/06/05 02:42:41;;;;;;;9.48;2.25;;;35.00;18.40;;;;;;4907933;29;20046;-62
2023/06/05 02:45:08;;;;;;;22.27;2.83;;;35.00;18.30;;;;;;4907223;29;20405;-63
2023/06/05 02:47:35;;;;;;;22.08;4.57;;;34.90;18.70;;;;;;4906169;29;20723;-60
2023/06/05 02:50:02;;;;;;;21.88;5.20;;;34.90;19.80;;;;;;4902706;29;20073;-61
2023/06/05 02:52:29;;;;;;;26.80;5.68;;;34.90;20.40;;;;;;4907899;29;20099;-61
2023/06/05 02:54:56;;;;;;;28.73;5.72;;;34.90;21.20;;;;;;4907357;29;20060;-60
2023/06/05 02:57:26;;;;;;;21.67;5.82;;;34.80;22.70;;;;;;4907040;29;20065;-61
2023/06/05 02:59:52;;;;;;;24.58;6.28;;;34.70;23.90;;;;;;4911230;29;20154;-60
2023/06/05 03:02:19;;;;;;;27.52;5.85;;;34.60;24.60;;;;;;4907422;29;20046;-60
2023/06/05 03:04:48;;;;;;;16.58;4.43;;;34.50;25.20;;;;;;4906918;29;20063;-62
2023/06/05 03:07:16;;;;;;;23.40;5.43;;;34.40;25.80;;;;;;4907142;29;20123;-60
2023/06/05 03:09:42;;;;;;;26.88;7.32;;;34.30;26.30;;;;;;4907750;29;20071;-60
2023/06/05 03:12:08;;;;;;;16.33;6.28;;;34.20;27.50;;;;;;4907147;29;20054;-63
2023/06/05 03:14:35;;;;;;;18.67;6.50;;;34.00;27.50;;;;;;4898130;29;20048;-60
2023/06/05 03:17:03;;;;;;;29.35;7.75;;;34.00;27.70;;;;;;4904413;29;20447;-61
2023/06/05 03:19:30;;;;;;;21.23;5.70;;;33.80;27.90;;;;;;4909119;29;20057;-62
2023/06/05 03:21:56;;;;;;;22.88;5.85;;;33.80;28.20;;;;;;4904774;29;20733;-60
2023/06/05 03:24:24;;;;;;;37.05;7.25;;;33.70;28.50;;;;;;4905096;29;20130;-60
2023/06/05 03:26:51;;;;;;;38.65;7.50;;;33.50;28.80;;;;;;4904149;29;20064;-60
2023/06/05 03:29:17;;;;;;;35.63;7.45;;;33.50;29.20;;;;;;4906933;29;20145;-60
2023/06/05 03:31:44;;;;;;;41.65;7.45;;;33.40;29.40;;;;;;4907059;29;20095;-64
2023/06/05 03:34:10;;;;;;;42.88;8.43;;;33.30;29.40;;;;;;4907297;29;20062;-60
2023/06/05 03:36:39;;;;;;;33.97;6.35;;;33.20;29.40;;;;;;4906849;29;20072;-62
2023/06/05 03:39:06;;;;;;;43.67;6.57;;;33.20;29.40;;;;;;4910118;29;20562;-60
2023/06/05 03:41:33;;;;;;;29.05;6.57;;;33.10;29.40;;;;;;4910356;29;20485;-62
2023/06/05 03:43:59;;;;;;;38.85;6.65;;;33.00;29.40;;;;;;4909877;29;20110;-60
2023/06/05 03:46:29;;;;;;;29.30;6.80;;;32.90;29.50;;;;;;4911374;29;20444;-60
2023/06/05 03:48:59;;;;;;;34.85;7.28;;;32.90;29.80;;;;;;4909141;29;20050;-61
2023/06/05 03:51:29;;;;;;;26.63;8.30;;;32.80;30.00;;;;;;4909059;29;20053;-61
2023/06/05 03:54:00;;;;;;;29.23;8.75;;;32.70;30.40;;;;;;4910528;29;20059;-61
2023/06/05 03:56:39;;;;;;;33.33;10.10;;;32.60;31.00;;;;;;4911014;29;20132;-60
2023/06/05 03:59:19;;;;;;;41.42;10.20;;;32.50;31.50;;;;;;4912721;29;20471;-60
2023/06/05 04:01:46;;;;;;;35.97;9.88;;;32.40;32.50;;;;;;4909574;29;20460;-60
2023/06/05 04:04:12;;;;;;;36.30;10.85;;;32.40;33.10;;;;;;4911446;29;20078;-61
2023/06/05 04:06:40;;;;;;;42.13;12.02;;;32.30;33.60;;;;;;4913696;29;20139;-61
2023/06/05 04:09:13;;;;;;;38.13;10.77;;;32.20;34.10;;;;;;4910621;29;20054;-60
2023/06/05 04:11:42;;;;;;;40.92;11.45;;;32.10;34.70;;;;;;4909482;29;20064;-60
2023/06/05 04:14:11;;;;;;;52.10;11.60;;;32.10;35.10;;;;;;4910535;29;20166;-61
2023/06/05 04:16:39;;;;;;;42.08;10.30;;;32.00;35.50;;;;;;4902601;29;20085;-60
2023/06/05 04:19:06;;;;;;;45.20;11.32;;;32.00;36.00;;;;;;4909318;29;20132;-61
2023/06/05 04:21:37;;;;;;;48.22;11.23;;;31.90;36.20;;;;;;4908785;29;20587;-61
2023/06/05 04:24:09;;;;;;;37.78;10.25;;;31.80;36.20;;;;;;4906097;29;20063;-61
2023/06/05 04:26:37;;;;;;;38.60;8.13;;;31.80;36.40;;;;;;4901909;29;20055;-60
2023/06/05 04:29:05;;;;;;;34.05;7.78;;;31.70;36.60;;;;;;4902366;29;20250;-61
2023/06/05 04:31:32;;;;;;;33.28;4.47;;;31.70;36.80;;;;;;4908280;29;20458;-60
2023/06/05 04:34:01;;;;;;;32.95;4.28;;;31.50;36.90;;;;;;4908461;29;20071;-61
2023/06/05 04:36:28;;;;;;;94.55;6.40;;;31.40;37.20;;;;;;4909477;29;20236;-68
2023/06/05 04:38:55;;;;;;;29.23;4.97;;;31.30;37.40;;;;;;4909872;29;20403;-62
2023/06/05 04:41:22;;;;;;;38.33;5.07;;;31.30;37.40;;;;;;4904583;29;20062;-64
2023/06/05 04:43:48;;;;;;;18.73;3.83;;;31.20;37.50;;;;;;4905343;29;20163;-64
2023/06/05 04:46:15;;;;;;;20.63;4.32;;;31.20;37.50;;;;;;4906165;29;20058;-64
2023/06/05 04:48:42;;;;;;;18.33;3.72;;;31.10;37.20;;;;;;4909685;29;20541;-65
2023/06/05 04:51:09;;;;;;;17.25;3.92;;;31.00;36.90;;;;;;4908349;29;20072;-62
2023/06/05 04:53:35;;;;;;;14.35;3.38;;;30.90;36.80;;;;;;4907599;29;20067;-65
2023/06/05 04:56:02;;;;;;;15.48;3.58;;;30.80;36.70;;;;;;4907844;29;20074;-66
2023/06/05 04:58:28;;;;;;;17.80;3.30;;;30.80;36.70;;;;;;4911278;29;20113;-65
2023/06/05 05:01:04;;;;;;;23.55;3.97;;;30.70;36.60;;;;;;4908913;29;20060;-67
2023/06/05 05:03:31;;;;;;;22.77;3.40;;;30.70;36.60;;;;;;4908240;29;20056;-66
2023/06/05 05:05:58;;;;;;;12.35;3.65;;;30.70;36.70;;;;;;4912493;29;20552;-67
2023/06/05 05:08:24;;;;;;;25.63;3.40;;;30.60;36.70;;;;;;4908475;29;20085;-67
2023/06/05 05:10:51;;;;;;;25.25;4.43;;;30.50;36.80;;;;;;4908093;29;20090;-67
2023/06/05 05:13:17;;;;;;;25.17;4.97;;;30.50;37.10;;;;;;4906138;29;20073;-65
2023/06/05 05:15:44;;;;;;;17.00;3.40;;;30.40;37.40;;;;;;4907666;29;20557;-65
2023/06/05 05:18:10;;;;;;;24.50;3.17;;;30.40;37.50;;;;;;4907411;29;20468;-64
2023/06/05 05:20:38;;;;;;;15.80;3.28;;;30.30;37.70;;;;;;4909432;29;20373;-65
2023/06/05 05:23:07;;;;;;;16.08;3.38;;;30.20;37.70;;;;;;4900439;29;20060;-64
2023/06/05 05:25:34;;;;;;;19.20;3.58;;;30.20;37.90;;;;;;4905623;29;20088;-64
2023/06/05 05:28:00;;;;;;;15.45;3.22;;;30.20;38.20;;;;;;4908606;29;20109;-65
2023/06/05 05:30:27;;;;;;;13.80;3.60;;;30.10;38.80;;;;;;4908577;29;20259;-66
2023/06/05 05:32:53;;;;;;;13.85;3.45;;;30.00;38.70;;;;;;4908861;29;20115;-65
2023/06/05 05:35:19;;;;;;;18.60;3.70;;;29.90;39.60;;;;;;4907289;29;20147;-63
2023/06/05 05:37:46;;;;;;;18.67;3.53;;;29.80;39.20;;;;;;4910246;29;20430;-66
2023/06/05 05:40:12;;;;;;;17.90;3.50;;;29.80;39.50;;;;;;4908046;29;20088;-66
2023/06/05 05:42:39;;;;;;;27.45;3.72;;;29.70;39.70;;;;;;4909143;29;20107;-63
2023/06/05 05:45:06;;;;;;;13.82;3.67;;;29.70;40.00;;;;;;4907846;29;20409;-66
2023/06/05 05:47:33;;;;;;;14.75;3.42;;;29.60;41.00;;;;;;4909372;29;20077;-62
2023/06/05 05:49:59;;;;;;;14.57;4.90;;;29.40;40.80;;;;;;4908922;29;20131;-64
2023/06/05 05:52:26;;;;;;;11.63;3.40;;;29.40;41.30;;;;;;4906729;29;20069;-65
2023/06/05 05:54:52;;;;;;;11.75;3.58;;;29.30;41.80;;;;;;4905803;29;20155;-65
2023/06/05 05:57:19;;;;;;;24.15;4.90;;;29.30;42.80;;;;;;4906548;29;20178;-63
2023/06/05 05:59:45;;;;;;;13.35;4.82;;;29.30;42.50;;;;;;4910515;29;20537;-67
2023/06/05 06:02:12;;;;;;;14.05;3.67;;;29.30;42.50;;;;;;4907372;29;20085;-66
2023/06/05 06:04:40;;;;;;;12.68;3.97;;;29.20;43.80;;;;;;4907353;29;20701;-66
2023/06/05 06:07:06;;;;;;;19.95;3.80;;;29.20;43.60;;;;;;4906406;29;20076;-66
2023/06/05 06:09:33;;;;;;;14.23;3.75;;;29.10;43.90;;;;;;4907228;29;20092;-67
2023/06/05 06:12:02;;;;;;;16.90;3.92;;;29.00;43.60;;;;;;4908638;29;20092;-66
2023/06/05 06:14:29;;;;;;;16.13;3.75;;;28.90;43.50;;;;;;4907552;29;20082;-65
2023/06/05 06:16:57;;;;;;;19.80;3.70;;;28.90;43.70;;;;;;4907092;29;20109;-63
2023/06/05 06:19:23;;;;;;;27.50;7.65;;;28.90;44.00;;;;;;4906139;29;20376;-64
2023/06/05 06:21:51;;;;;;;30.75;8.57;;;28.70;48.60;;;;;;4906064;29;20167;-66
2023/06/05 06:24:21;;;;;;;27.88;8.80;;;28.70;50.20;;;;;;4899509;29;20950;-66
2023/06/05 06:26:48;;;;;;;24.00;7.40;;;28.70;51.50;;;;;;4906540;29;20089;-66
2023/06/05 06:29:21;;;;;;;22.75;7.20;;;28.60;51.50;;;;;;4905765;29;20612;-63
2023/06/05 06:31:47;;;;;;;28.48;8.30;;;28.60;51.40;;;;;;4908473;29;20142;-65
2023/06/05 06:34:14;;;;;;;29.13;8.65;;;28.50;51.70;;;;;;4908398;29;20081;-64
2023/06/05 06:36:43;;;;;;;30.55;8.63;;;28.50;51.80;;;;;;4911201;29;20091;-63
2023/06/05 06:39:13;;;;;;;23.17;9.02;;;28.50;51.80;;;;;;4905957;29;20106;-63
2023/06/05 06:41:39;;;;;;;28.73;8.95;;;28.40;52.10;;;;;;4908714;29;20532;-63
2023/06/05 06:44:06;;;;;;;26.48;9.52;;;28.30;52.20;;;;;;4907602;29;20159;-64
2023/06/05 06:46:32;;;;;;;39.42;10.88;;;28.30;52.10;;;;;;4906707;29;20500;-65
2023/06/05 06:48:59;;;;;;;36.30;9.93;;;28.30;52.10;;;;;;4906108;29;20129;-63
2023/06/05 06:51:25;;;;;;;43.58;10.13;;;28.30;52.20;;;;;;4907264;29;20084;-65
2023/06/05 06:53:52;;;;;;;34.70;9.55;;;28.20;52.00;;;;;;4909208;29;20086;-61
2023/06/05 06:56:18;;;;;;;25.35;7.10;;;28.20;51.90;;;;;;4903739;29;20106;-63
2023/06/05 06:58:48;;;;;;;21.88;5.60;;;28.20;52.20;;;;;;4911203;29;20075;-64
2023/06/05 07:01:15;;;;;;;17.45;5.32;;;28.20;52.40;;;;;;4908895;29;20214;-63
2023/06/05 07:03:42;;;;;;;23.63;5.28;;;28.10;52.20;;;;;;4907257;29;20067;-63
2023/06/05 07:06:11;;;;;;;22.55;5.35;;;28.00;52.30;;;;;;4909204;29;20525;-64
2023/06/05 07:08:38;;;;;;;19.48;5.40;;;27.90;52.00;;;;;;4905882;29;20074;-64
2023/06/05 07:11:04;;;;;;;23.45;5.35;;;27.90;52.40;;;;;;4907399;29;20075;-63
2023/06/05 07:13:31;;;;;;;22.80;5.57;;;27.90;53.70;;;;;;4910709;29;20076;-66
2023/06/05 07:15:57;;;;;;;30.50;5.15;;;27.80;53.10;;;;;;4910257;29;20148;-64
2023/06/05 07:18:24;;;;;;;22.30;5.22;;;27.70;53.30;;;;;;4910787;29;20099;-64
2023/06/05 07:20:50;;;;;;;20.02;4.90;;;27.60;54.20;;;;;;4908224;29;20147;-64
2023/06/05 07:23:18;;;;;;;23.67;5.07;;;27.50;54.70;;;;;;4909849;29;20110;-64
2023/06/05 07:25:45;;;;;;;19.80;5.32;;;27.50;55.30;;;;;;4910714;29;20071;-63
2023/06/05 07:28:12;;;;;;;19.98;5.78;;;27.50;55.50;;;;;;4908857;29;20096;-63
2023/06/05 07:30:42;;;;;;;26.70;4.78;;;27.40;55.50;;;;;;4910521;29;20073;-65
2023/06/05 07:33:09;;;;;;;17.05;4.78;;;27.30;55.40;;;;;;4909602;29;20111;-65
2023/06/05 07:35:36;;;;;;;21.27;5.13;;;27.30;55.30;;;;;;4910405;29;20096;-64
2023/06/05 07:38:03;;;;;;;22.20;5.55;;;27.30;54.40;;;;;;4912396;29;20555;-65
2023/06/05 07:40:29;;;;;;;32.25;6.50;;;27.10;53.70;;;;;;4911400;29;20087;-65
2023/06/05 07:42:56;;;;;;;16.15;5.38;;;27.00;54.00;;;;;;4909666;29;20103;-66
2023/06/05 07:45:22;;;;;;;21.50;5.63;;;26.90;54.30;;;;;;4908857;29;20107;-64
2023/06/05 07:47:48;;;;;;;19.50;5.18;;;26.90;54.20;;;;;;4908905;29;20515;-62
2023/06/05 07:50:15;;;;;;;18.10;3.88;;;26.90;55.30;;;;;;4908453;29;20463;-64
2023/06/05 07:52:41;;;;;;;20.00;4.03;;;26.90;56.40;;;;;;4910457;29;20087;-63
2023/06/05 07:55:08;;;;;;;21.50;4.80;;;26.80;57.00;;;;;;4909801;29;20123;-65
2023/06/05 07:57:36;;;;;;;21.88;4.38;;;26.80;57.20;;;;;;4908555;29;20086;-62
2023/06/05 08:00:03;;;;;;;16.75;3.88;;;26.60;57.50;;;;;;4909207;29;20070;-63
2023/06/05 08:02:30;;;;;;;17.23;3.92;;;26.60;57.60;;;;;;4910179;29;20067;-62
2023/06/05 08:04:56;;;;;;;21.27;4.43;;;26.50;57.60;;;;;;4910809;29;20093;-63
2023/06/05 08:07:22;;;;;;;14.55;4.03;;;26.50;57.80;;;;;;4910320;29;20484;-62
2023/06/05 08:09:49;;;;;;;15.30;3.63;;;26.50;57.80;;;;;;4905929;29;20080;-64
2023/06/05 08:12:15;;;;;;;20.27;4.15;;;26.50;57.60;;;;;;4903717;29;20104;-64
2023/06/05 08:14:42;;;;;;;17.42;4.18;;;26.50;57.50;;;;;;4909852;29;20521;-64
2023/06/05 08:17:08;;;;;;;31.08;5.35;;;26.40;57.30;;;;;;4907948;29;20115;-62
2023/06/05 08:19:35;;;;;;;19.05;4.65;;;26.40;57.20;;;;;;4907337;29;20178;-62
2023/06/05 08:22:01;;;;;;;20.45;4.55;;;26.10;57.60;;;;;;4907148;29;20513;-63
2023/06/05 08:24:28;;;;;;;14.10;4.00;;;26.00;57.60;;;;;;4910597;29;20591;-64
2023/06/05 08:26:55;;;;;;;19.95;4.05;;;25.90;58.10;;;;;;4907980;29;20079;-62
2023/06/05 08:29:22;;;;;;;13.45;3.88;;;25.90;57.70;;;;;;4909358;29;20084;-62
2023/06/05 08:31:48;;;;;;;10.50;4.03;;;25.80;57.40;;;;;;4911947;29;20172;-62
2023/06/05 08:34:14;;;;;;;19.70;4.40;;;25.90;57.90;;;;;;4911195;29;21457;-64
2023/06/05 08:36:42;;;;;;;22.92;5.05;;;25.90;57.40;;;;;;4910454;29;20103;-63
2023/06/05 08:39:09;;;;;;;19.75;3.72;;;25.90;57.40;;;;;;4907144;29;20174;-63
2023/06/05 08:41:37;;;;;;;14.45;4.20;;;26.00;57.20;;;;;;4909271;29;20158;-62
2023/06/05 08:44:04;;;;;;;13.95;4.18;;;25.80;57.30;;;;;;4909276;29;20086;-64
2023/06/05 08:46:30;;;;;;;14.35;4.00;;;25.90;57.10;;;;;;4907561;29;20104;-64
2023/06/05 08:48:58;;;;;;;15.32;4.10;;;25.90;56.90;;;;;;4908693;29;20175;-62
2023/06/05 08:51:24;;;;;;;13.02;3.85;;;25.80;56.30;;;;;;4908333;29;20087;-62
2023/06/05 08:54:20;;;;;;;16.20;4.00;;;25.80;56.80;;;;;;4909306;29;20474;-62
2023/06/05 08:56:49;;;;;;;15.80;4.85;;;25.90;57.40;;;;;;4858013;29;20808;-63
2023/06/05 08:59:18;;;;;;;14.60;4.07;;;25.70;56.20;;;;;;4855525;29;20145;-63
2023/06/05 09:01:47;;;;;;;15.88;4.15;;;25.80;56.90;;;;;;4854878;29;20494;-64
2023/06/05 09:04:13;;;;;;;8.68;4.00;;;25.80;55.40;;;;;;4854274;29;20079;-62
2023/06/05 09:06:40;;;;;;;12.20;3.58;;;25.80;54.60;;;;;;4855485;29;20096;-64
2023/06/05 09:09:08;;;;;;;12.95;4.25;;;25.90;54.40;;;;;;4853962;29;20495;-65
2023/06/05 09:11:36;;;;;;;10.18;4.10;;;25.90;53.90;;;;;;4853989;29;20616;-64
2023/06/05 09:14:02;;;;;;;14.80;4.15;;;25.90;53.80;;;;;;4854413;29;20077;-63
2023/06/05 09:16:37;;;;;;;13.88;4.53;;;25.80;54.10;;;;;;4854171;29;20618;-64
2023/06/05 09:19:05;;;;;;;11.10;3.97;;;25.80;54.50;;;;;;4855278;29;20088;-66
2023/06/05 09:21:32;;;;;;;11.40;3.90;;;26.30;52.90;;;;;;4853779;29;20076;-67
2023/06/05 09:24:12;;;;;;;11.23;3.60;;;26.80;51.50;;;;;;4850941;29;20479;-66
2023/06/05 09:27:08;;;;;;;7.82;3.53;;;27.00;51.20;;;;;;4854873;29;20200;-68
2023/06/05 09:29:39;;;;;;;11.88;3.67;;;27.10;49.20;;;;;;4855574;29;20123;-67
2023/06/05 09:32:23;;;;;;;14.55;4.88;;;27.40;47.40;;;;;;4856123;29;20174;-66
2023/06/05 09:35:03;;;;;;;11.98;4.30;;;27.40;46.40;;;;;;4907796;29;20156;-67
2023/06/05 09:37:37;;;;;;;14.43;4.30;;;27.50;46.10;;;;;;4907686;29;20098;-67
2023/06/05 09:40:08;;;;;;;17.33;4.30;;;27.50;45.60;;;;;;4907073;29;20118;-69
2023/06/05 09:42:35;;;;;;;11.23;3.95;;;27.50;46.00;;;;;;4907682;29;20066;-64
2023/06/05 09:45:04;;;;;;;16.80;4.45;;;27.60;45.10;;;;;;4908796;29;20536;-67
2023/06/05 09:47:30;;;;;;;11.25;3.90;;;27.50;45.10;;;;;;4908148;29;20092;-67
2023/06/05 09:49:57;;;;;;;19.80;4.93;;;27.40;44.90;;;;;;4907376;29;20072;-66
2023/06/05 09:52:24;;;;;;;11.30;4.45;;;27.30;45.00;;;;;;4909415;29;20134;-64
2023/06/05 09:54:54;;;;;;;13.45;4.03;;;27.30;44.90;;;;;;4907618;29;20168;-65
2023/06/05 09:57:22;;;;;;;14.07;4.43;;;27.30;44.70;;;;;;4906621;29;20095;-67
2023/06/05 09:59:55;;;;;;;16.25;4.65;;;27.30;44.70;;;;;;4909838;29;20071;-63
2023/06/05 10:02:32;;;;;;;16.85;4.88;;;27.10;45.90;;;;;;4908174;29;20074;-65
2023/06/05 10:05:07;;;;;;;10.68;4.32;;;27.00;46.20;;;;;;4905106;29;20073;-67
2023/06/05 10:07:36;;;;;;;15.13;4.80;;;26.90;46.40;;;;;;4908241;29;20103;-67
2023/06/05 10:10:04;;;;;;;13.73;4.40;;;26.70;46.30;;;;;;4908140;29;20075;-67
2023/06/05 10:12:31;;;;;;;18.75;4.13;;;26.60;44.50;;;;;;4909717;29;20088;-66
2023/06/05 10:14:58;;;;;;;13.10;3.80;;;26.60;44.40;;;;;;4905676;29;20098;-65
2023/06/05 10:17:25;;;;;;;16.10;4.60;;;26.60;43.70;;;;;;4906110;29;20091;-66
2023/06/05 10:19:52;;;;;;;17.67;4.68;;;26.40;45.00;;;;;;4908934;29;20122;-63
2023/06/05 10:22:19;;;;;;;17.88;4.93;;;26.50;44.50;;;;;;4907174;29;20086;-65
2023/06/05 10:24:51;;;;;;;17.98;5.22;;;26.50;45.40;;;;;;4907460;29;20127;-67
2023/06/05 10:27:35;;;;;;;18.95;5.38;;;26.40;45.50;;;;;;4906088;29;20587;-64
2023/06/05 10:30:26;;;;;;;18.42;5.10;;;26.30;45.90;;;;;;4908548;29;20089;-65
2023/06/05 10:33:17;;;;;;;13.55;4.70;;;26.00;45.60;;;;;;4904110;29;20147;-64
2023/06/05 10:35:52;;;;;;;12.05;3.95;;;25.90;45.20;;;;;;4906811;29;20126;-65
2023/06/05 10:38:25;;;;;;;15.68;4.30;;;25.90;44.80;;;;;;4907456;29;20098;-65
2023/06/05 10:40:57;;;;;;;14.73;4.15;;;26.00;43.70;;;;;;4908279;29;20533;-65
2023/06/05 10:43:31;;;;;;;17.48;4.18;;;26.00;43.60;;;;;;4905852;29;20443;-67
2023/06/05 10:46:00;;;;;;;11.43;3.97;;;26.00;44.50;;;;;;4909770;29;20535;-64
2023/06/05 10:49:03;;;;;;;10.52;3.70;;;26.00;43.40;;;;;;4926452;29;20098;-64
2023/06/05 10:51:42;;;;;;;14.10;4.25;;;26.00;43.40;;;;;;4908642;29;20095;-65
2023/06/05 10:54:10;;;;;;;15.75;4.40;;;26.00;43.20;;;;;;4910199;29;20080;-66
2023/06/05 10:57:25;;;;;;;19.25;4.57;;;25.90;43.30;;;;;;4909772;29;20123;-64
2023/06/05 10:59:44;;;;;;;13.23;4.03;;;25.90;43.70;;;;;;4912147;29;20104;-66
2023/06/05 11:04:43;;;;;;;15.32;3.85;;;25.80;43.20;;;;;;4911297;29;20087;-65
2023/06/05 11:07:22;;;;;;;16.10;4.38;;;25.60;42.40;;;;;;4912788;29;20608;-65
2023/06/05 11:10:08;;;;;;;12.23;4.10;;;25.50;43.70;;;;;;4908724;29;20092;-66
2023/06/05 11:12:40;;;;;;;13.00;4.10;;;25.60;41.80;;;;;;4910091;29;20084;-64
2023/06/05 11:15:11;;;;;;;14.25;3.92;;;25.60;41.60;;;;;;4911998;29;20150;-65
2023/06/05 11:17:39;;;;;;;13.27;4.18;;;25.70;41.40;;;;;;4912569;29;20072;-65
2023/06/05 11:20:10;;;;;;;14.57;4.47;;;25.50;41.20;;;;;;4912624;29;20064;-63
2023/06/05 11:22:58;;;;;;;9.57;4.18;;;25.60;40.60;;;;;;4912596;29;20087;-65
2023/06/05 11:25:29;;;;;;;15.57;5.20;;;25.70;40.10;;;;;;4911284;29;20087;-65
2023/06/05 11:28:04;;;;;;;19.77;4.82;;;25.60;39.70;;;;;;4913124;29;20072;-64
2023/06/05 11:30:33;;;;;;;13.80;4.63;;;25.50;39.40;;;;;;4913041;29;20086;-65
2023/06/05 11:33:12;;;;;;;13.20;5.38;;;25.40;39.20;;;;;;4912308;29;20580;-65
2023/06/05 11:35:39;;;;;;;14.02;4.57;;;25.40;39.30;;;;;;4911219;29;20095;-63
2023/06/05 11:38:19;;;;;;;14.98;4.72;;;25.40;39.30;;;;;;4910087;29;20076;-64
2023/06/05 11:40:46;;;;;;;14.57;5.07;;;25.30;40.40;;;;;;4908197;29;20078;-65
2023/06/05 11:43:13;;;;;;;18.67;6.30;;;25.30;39.70;;;;;;4909655;29;20080;-67
2023/06/05 11:45:51;;;;;;;19.90;6.45;;;25.30;39.60;;;;;;4910173;29;20076;-65
2023/06/05 11:48:17;;;;;;;30.02;6.68;;;25.20;40.10;;;;;;4912754;29;20461;-65
2023/06/05 11:51:00;;;;;;;19.50;7.05;;;25.10;39.90;;;;;;4910288;29;20425;-67
2023/06/05 11:53:30;;;;;;;27.83;8.75;;;25.10;40.10;;;;;;4909338;29;20067;-65
2023/06/05 11:58:35;;;;;;;18.52;7.57;;;25.20;39.20;;;;;;4907921;29;20068;-66
2023/06/05 12:01:21;;;;;;;23.70;7.25;;;25.10;39.20;;;;;;4909506;29;20159;-64
2023/06/05 12:03:49;;;;;;;21.63;7.22;;;25.10;40.30;;;;;;4907866;29;20078;-65
2023/06/05 12:06:17;;;;;;;15.85;5.78;;;25.00;40.80;;;;;;4914284;29;20071;-63
2023/06/05 12:08:44;;;;;;;17.08;5.97;;;25.00;40.70;;;;;;4907951;29;20076;-65
2023/06/05 12:11:27;;;;;;;21.80;7.25;;;24.90;41.00;;;;;;4904384;29;20072;-67
2023/06/05 12:13:57;;;;;;;23.48;8.52;;;24.70;40.70;;;;;;4908818;29;20237;-66
2023/06/05 12:16:37;;;;;;;24.17;8.18;;;24.50;40.50;;;;;;4909351;29;20095;-65
2023/06/05 12:19:13;;;;;;;15.50;6.60;;;24.50;40.80;;;;;;4909939;29;20532;-64
2023/06/05 12:21:39;;;;;;;15.52;5.45;;;24.50;40.50;;;;;;4912804;29;20174;-65
2023/06/05 12:24:06;;;;;;;13.30;5.05;;;24.60;39.20;;;;;;4909347;29;20548;-67
2023/06/05 12:26:55;;;;;;;13.40;5.03;;;24.50;40.20;;;;;;4906608;29;21378;-66
2023/06/05 12:29:28;;;;;;;14.43;4.80;;;24.40;40.90;;;;;;4910906;29;20075;-67
2023/06/05 12:31:56;;;;;;;16.17;4.82;;;24.20;40.00;;;;;;4909815;29;20123;-67
2023/06/05 12:34:51;;;;;;;20.80;5.25;;;24.20;40.50;;;;;;4909902;29;20536;-62
2023/06/05 12:37:45;;;;;;;22.05;5.22;;;24.10;40.30;;;;;;4909803;29;20103;-70
2023/06/05 12:40:13;;;;;;;20.20;4.95;;;23.80;39.60;;;;;;4906804;29;20084;-66
2023/06/05 12:42:43;;;;;;;27.73;5.28;;;23.80;39.60;;;;;;4908052;29;20163;-67
2023/06/05 12:45:10;;;;;;;18.98;5.30;;;23.70;40.20;;;;;;4907734;29;20087;-66
2023/06/05 12:47:40;;;;;;;18.40;5.65;;;23.70;41.10;;;;;;4908736;29;20068;-65
2023/06/05 12:50:11;;;;;;;22.55;5.78;;;23.80;40.40;;;;;;4908133;29;20083;-64
2023/06/05 12:52:39;;;;;;;19.45;6.22;;;23.80;39.70;;;;;;4907898;29;20533;-66
2023/06/05 12:55:07;;;;;;;24.27;6.82;;;23.70;40.00;;;;;;4909300;29;20080;-66